Aragon, Georgia
Current Conditions -  °F | °C
As of 3:35 AM on Sunday 23 Nov 2014 (Local Time) from KPUJ Reporting Station
Light Rain Light Rain  
Wind Chill: 50°   Ceiling: 1500
Heat Index: 50°   Visibility: 10mi
Dew Point: 43°   Wind: 10mph
Humidity: 76%   Direction: 110°ESE
Pressure: 30.09"   Gusts: 21mph
Location:  34.05°N, 85.06°W
Report Text: KPUJ 230835Z AUTO 11009G18KT 10SM -RA OVC015 10/06 A3009 RMK AO2
Loading
Personal Weather Stations






























Interactive Weather Map New forecast layout! Learn more

10-Day Weather Forecast

Advertisements
Track Severe Weather on mobile